sensor_id;sensor_type;location;lat;lon;timestamp;temperature;humidity
29453;DHT22;16424;50.956;5.320;2022-09-03T00:00:55;18.30;92.80
29453;DHT22;16424;50.956;5.320;2022-09-03T00:03:43;18.20;92.80
29453;DHT22;16424;50.956;5.320;2022-09-03T00:08:52;18.10;93.20
29453;DHT22;16424;50.956;5.320;2022-09-03T00:11:24;18.00;93.10
29453;DHT22;16424;50.956;5.320;2022-09-03T00:14:15;18.00;93.10
29453;DHT22;16424;50.956;5.320;2022-09-03T00:16:58;18.00;93.00
29453;DHT22;16424;50.956;5.320;2022-09-03T00:19:30;18.00;92.90
29453;DHT22;16424;50.956;5.320;2022-09-03T00:22:02;18.00;93.10
29453;DHT22;16424;50.956;5.320;2022-09-03T00:24:34;18.00;93.20
29453;DHT22;16424;50.956;5.320;2022-09-03T00:27:05;18.10;93.20
29453;DHT22;16424;50.956;5.320;2022-09-03T00:30:03;18.10;94.00
29453;DHT22;16424;50.956;5.320;2022-09-03T00:32:51;18.00;94.20
29453;DHT22;16424;50.956;5.320;2022-09-03T00:35:29;18.00;94.30
29453;DHT22;16424;50.956;5.320;2022-09-03T00:37:56;18.00;94.60
29453;DHT22;16424;50.956;5.320;2022-09-03T00:46:06;17.90;95.20
29453;DHT22;16424;50.956;5.320;2022-09-03T00:48:54;17.90;95.40
29453;DHT22;16424;50.956;5.320;2022-09-03T01:03:06;17.90;95.30
29453;DHT22;16424;50.956;5.320;2022-09-03T01:08:42;18.00;95.30
29453;DHT22;16424;50.956;5.320;2022-09-03T01:14:22;18.10;95.70
29453;DHT22;16424;50.956;5.320;2022-09-03T01:17:08;18.00;95.90
29453;DHT22;16424;50.956;5.320;2022-09-03T01:30:16;17.90;96.20
29453;DHT22;16424;50.956;5.320;2022-09-03T01:33:32;18.00;96.40
29453;DHT22;16424;50.956;5.320;2022-09-03T01:38:49;18.10;96.80
29453;DHT22;16424;50.956;5.320;2022-09-03T01:42:13;18.30;97.00
29453;DHT22;16424;50.956;5.320;2022-09-03T01:50:32;18.10;96.80
29453;DHT22;16424;50.956;5.320;2022-09-03T01:58:50;18.20;96.80
29453;DHT22;16424;50.956;5.320;2022-09-03T02:01:49;18.20;96.90
29453;DHT22;16424;50.956;5.320;2022-09-03T02:04:21;18.40;96.90
29453;DHT22;16424;50.956;5.320;2022-09-03T02:06:51;18.50;97.00
29453;DHT22;16424;50.956;5.320;2022-09-03T02:09:18;18.50;96.90
29453;DHT22;16424;50.956;5.320;2022-09-03T02:11:48;18.60;96.60
29453;DHT22;16424;50.956;5.320;2022-09-03T02:14:15;18.60;96.40
29453;DHT22;16424;50.956;5.320;2022-09-03T02:16:41;18.70;96.00
29453;DHT22;16424;50.956;5.320;2022-09-03T02:19:12;18.70;95.40
29453;DHT22;16424;50.956;5.320;2022-09-03T02:21:41;18.80;95.20
29453;DHT22;16424;50.956;5.320;2022-09-03T02:24:08;18.70;95.00
29453;DHT22;16424;50.956;5.320;2022-09-03T02:26:34;18.70;95.00
29453;DHT22;16424;50.956;5.320;2022-09-03T02:29:01;18.70;95.00
29453;DHT22;16424;50.956;5.320;2022-09-03T02:31:28;18.70;94.90
29453;DHT22;16424;50.956;5.320;2022-09-03T02:33:55;18.70;94.90
29453;DHT22;16424;50.956;5.320;2022-09-03T02:36:27;18.70;94.50
29453;DHT22;16424;50.956;5.320;2022-09-03T02:38:54;18.70;94.60
29453;DHT22;16424;50.956;5.320;2022-09-03T02:41:20;18.80;95.40
29453;DHT22;16424;50.956;5.320;2022-09-03T02:43:49;18.90;95.70
29453;DHT22;16424;50.956;5.320;2022-09-03T02:46:20;19.00;94.70
29453;DHT22;16424;50.956;5.320;2022-09-03T02:48:47;18.90;94.50
29453;DHT22;16424;50.956;5.320;2022-09-03T02:51:12;18.90;95.80
29453;DHT22;16424;50.956;5.320;2022-09-03T02:53:38;18.80;95.90
29453;DHT22;16424;50.956;5.320;2022-09-03T02:56:04;18.70;96.50
29453;DHT22;16424;50.956;5.320;2022-09-03T02:58:30;18.70;96.30
29453;DHT22;16424;50.956;5.320;2022-09-03T03:00:56;18.70;96.70
29453;DHT22;16424;50.956;5.320;2022-09-03T03:03:22;18.60;96.00
29453;DHT22;16424;50.956;5.320;2022-09-03T03:05:53;18.60;96.80
29453;DHT22;16424;50.956;5.320;2022-09-03T03:08:25;18.50;96.50
29453;DHT22;16424;50.956;5.320;2022-09-03T03:10:53;18.40;96.80
29453;DHT22;16424;50.956;5.320;2022-09-03T03:13:21;18.40;96.60
29453;DHT22;16424;50.956;5.320;2022-09-03T03:15:47;18.30;96.50
29453;DHT22;16424;50.956;5.320;2022-09-03T03:18:14;18.30;97.10
29453;DHT22;16424;50.956;5.320;2022-09-03T03:20:42;18.30;96.90
29453;DHT22;16424;50.956;5.320;2022-09-03T03:23:08;18.30;96.90
29453;DHT22;16424;50.956;5.320;2022-09-03T03:25:35;18.30;97.20
29453;DHT22;16424;50.956;5.320;2022-09-03T03:28:02;18.30;97.70
29453;DHT22;16424;50.956;5.320;2022-09-03T03:30:30;18.30;97.30
29453;DHT22;16424;50.956;5.320;2022-09-03T03:32:56;18.30;97.60
29453;DHT22;16424;50.956;5.320;2022-09-03T03:35:22;18.30;97.20
29453;DHT22;16424;50.956;5.320;2022-09-03T03:37:48;18.30;96.90
29453;DHT22;16424;50.956;5.320;2022-09-03T03:40:14;18.40;96.80
29453;DHT22;16424;50.956;5.320;2022-09-03T03:42:40;18.50;96.70
29453;DHT22;16424;50.956;5.320;2022-09-03T03:45:06;18.40;96.90
29453;DHT22;16424;50.956;5.320;2022-09-03T03:47:33;18.50;96.60
29453;DHT22;16424;50.956;5.320;2022-09-03T03:49:59;18.50;96.80
29453;DHT22;16424;50.956;5.320;2022-09-03T03:52:26;18.40;96.70
29453;DHT22;16424;50.956;5.320;2022-09-03T03:54:52;18.40;96.70
29453;DHT22;16424;50.956;5.320;2022-09-03T03:57:19;18.40;96.70
29453;DHT22;16424;50.956;5.320;2022-09-03T03:59:46;18.30;96.90
29453;DHT22;16424;50.956;5.320;2022-09-03T04:02:12;18.30;97.00
29453;DHT22;16424;50.956;5.320;2022-09-03T04:04:38;18.30;97.00
29453;DHT22;16424;50.956;5.320;2022-09-03T04:07:03;18.30;97.00
29453;DHT22;16424;50.956;5.320;2022-09-03T04:09:29;18.40;96.70
29453;DHT22;16424;50.956;5.320;2022-09-03T04:11:55;18.50;96.60
29453;DHT22;16424;50.956;5.320;2022-09-03T04:14:24;18.50;96.30
29453;DHT22;16424;50.956;5.320;2022-09-03T04:16:50;18.50;96.20
29453;DHT22;16424;50.956;5.320;2022-09-03T04:19:16;18.50;96.50
29453;DHT22;16424;50.956;5.320;2022-09-03T04:21:42;18.40;96.70
29453;DHT22;16424;50.956;5.320;2022-09-03T04:24:08;18.40;96.60
29453;DHT22;16424;50.956;5.320;2022-09-03T04:26:34;18.40;96.70
29453;DHT22;16424;50.956;5.320;2022-09-03T04:29:08;18.40;96.80
29453;DHT22;16424;50.956;5.320;2022-09-03T04:31:36;18.50;96.50
29453;DHT22;16424;50.956;5.320;2022-09-03T04:34:03;18.50;96.00
29453;DHT22;16424;50.956;5.320;2022-09-03T04:36:30;18.60;96.10
29453;DHT22;16424;50.956;5.320;2022-09-03T04:38:58;18.60;96.30
29453;DHT22;16424;50.956;5.320;2022-09-03T04:41:27;18.60;96.20
29453;DHT22;16424;50.956;5.320;2022-09-03T04:43:54;18.60;96.30
29453;DHT22;16424;50.956;5.320;2022-09-03T04:46:23;18.50;96.20
29453;DHT22;16424;50.956;5.320;2022-09-03T04:48:51;18.60;96.20
29453;DHT22;16424;50.956;5.320;2022-09-03T04:51:19;18.50;96.20
29453;DHT22;16424;50.956;5.320;2022-09-03T04:53:47;18.50;96.50
29453;DHT22;16424;50.956;5.320;2022-09-03T04:56:19;18.50;96.50
29453;DHT22;16424;50.956;5.320;2022-09-03T04:58:45;18.50;96.30
29453;DHT22;16424;50.956;5.320;2022-09-03T05:01:19;18.40;96.70
29453;DHT22;16424;50.956;5.320;2022-09-03T05:03:45;18.40;96.60
29453;DHT22;16424;50.956;5.320;2022-09-03T05:06:11;18.40;96.60
29453;DHT22;16424;50.956;5.320;2022-09-03T05:08:38;18.60;96.20
29453;DHT22;16424;50.956;5.320;2022-09-03T05:11:06;18.80;96.00
29453;DHT22;16424;50.956;5.320;2022-09-03T05:13:32;18.80;96.10
29453;DHT22;16424;50.956;5.320;2022-09-03T05:16:05;18.90;96.00
29453;DHT22;16424;50.956;5.320;2022-09-03T05:18:31;18.90;96.00
29453;DHT22;16424;50.956;5.320;2022-09-03T05:21:01;18.80;96.10
29453;DHT22;16424;50.956;5.320;2022-09-03T05:23:28;18.80;96.10
29453;DHT22;16424;50.956;5.320;2022-09-03T05:26:02;18.70;96.30
29453;DHT22;16424;50.956;5.320;2022-09-03T05:28:30;18.80;96.20
29453;DHT22;16424;50.956;5.320;2022-09-03T05:33:32;18.60;96.40
29453;DHT22;16424;50.956;5.320;2022-09-03T05:36:05;18.70;96.30
29453;DHT22;16424;50.956;5.320;2022-09-03T05:38:32;18.80;96.20
29453;DHT22;16424;50.956;5.320;2022-09-03T05:41:05;19.00;95.90
29453;DHT22;16424;50.956;5.320;2022-09-03T05:43:32;19.10;95.50
29453;DHT22;16424;50.956;5.320;2022-09-03T05:48:30;19.10;95.70
29453;DHT22;16424;50.956;5.320;2022-09-03T05:50:59;19.00;95.80
29453;DHT22;16424;50.956;5.320;2022-09-03T05:53:26;19.10;95.80
29453;DHT22;16424;50.956;5.320;2022-09-03T05:55:59;19.10;96.10
29453;DHT22;16424;50.956;5.320;2022-09-03T05:58:30;19.20;96.50
29453;DHT22;16424;50.956;5.320;2022-09-03T06:00:56;19.20;96.40
29453;DHT22;16424;50.956;5.320;2022-09-03T06:03:21;19.20;97.00
29453;DHT22;16424;50.956;5.320;2022-09-03T06:05:53;19.50;96.30
29453;DHT22;16424;50.956;5.320;2022-09-03T06:08:22;19.90;95.80
29453;DHT22;16424;50.956;5.320;2022-09-03T06:10:48;20.10;95.00
29453;DHT22;16424;50.956;5.320;2022-09-03T06:13:13;20.10;95.00
29453;DHT22;16424;50.956;5.320;2022-09-03T06:15:39;20.20;94.50
29453;DHT22;16424;50.956;5.320;2022-09-03T06:18:05;20.20;94.30
29453;DHT22;16424;50.956;5.320;2022-09-03T06:20:31;20.10;94.50
29453;DHT22;16424;50.956;5.320;2022-09-03T06:23:04;20.10;94.50
29453;DHT22;16424;50.956;5.320;2022-09-03T06:25:29;20.10;94.10
29453;DHT22;16424;50.956;5.320;2022-09-03T06:27:56;20.10;94.00
29453;DHT22;16424;50.956;5.320;2022-09-03T06:30:22;20.20;93.90
29453;DHT22;16424;50.956;5.320;2022-09-03T06:32:49;20.30;93.80
29453;DHT22;16424;50.956;5.320;2022-09-03T06:35:15;20.30;93.90
29453;DHT22;16424;50.956;5.320;2022-09-03T06:37:41;20.20;94.10
29453;DHT22;16424;50.956;5.320;2022-09-03T06:40:08;20.10;94.10
29453;DHT22;16424;50.956;5.320;2022-09-03T06:42:41;20.20;94.30
29453;DHT22;16424;50.956;5.320;2022-09-03T06:45:10;20.40;94.00
29453;DHT22;16424;50.956;5.320;2022-09-03T06:47:36;20.70;93.70
29453;DHT22;16424;50.956;5.320;2022-09-03T06:50:02;20.80;93.40
29453;DHT22;16424;50.956;5.320;2022-09-03T06:52:28;20.80;93.60
29453;DHT22;16424;50.956;5.320;2022-09-03T06:54:54;21.00;93.50
29453;DHT22;16424;50.956;5.320;2022-09-03T06:57:19;21.30;93.20
29453;DHT22;16424;50.956;5.320;2022-09-03T06:59:45;22.30;92.40
29453;DHT22;16424;50.956;5.320;2022-09-03T07:02:11;23.30;91.00
29453;DHT22;16424;50.956;5.320;2022-09-03T07:04:37;24.60;89.40
29453;DHT22;16424;50.956;5.320;2022-09-03T07:07:03;25.90;87.50
29453;DHT22;16424;50.956;5.320;2022-09-03T07:09:28;27.10;83.80
29453;DHT22;16424;50.956;5.320;2022-09-03T07:11:54;27.90;81.00
29453;DHT22;16424;50.956;5.320;2022-09-03T07:14:20;28.40;80.10
29453;DHT22;16424;50.956;5.320;2022-09-03T07:16:47;28.90;78.20
29453;DHT22;16424;50.956;5.320;2022-09-03T07:19:14;29.20;78.40
29453;DHT22;16424;50.956;5.320;2022-09-03T07:21:40;29.40;77.30
29453;DHT22;16424;50.956;5.320;2022-09-03T07:24:06;29.80;76.40
29453;DHT22;16424;50.956;5.320;2022-09-03T07:26:38;30.50;75.30
29453;DHT22;16424;50.956;5.320;2022-09-03T07:29:06;30.50;73.20
29453;DHT22;16424;50.956;5.320;2022-09-03T07:31:37;29.50;73.70
29453;DHT22;16424;50.956;5.320;2022-09-03T07:34:06;28.70;75.10
29453;DHT22;16424;50.956;5.320;2022-09-03T07:36:37;27.70;76.50
29453;DHT22;16424;50.956;5.320;2022-09-03T07:39:04;26.70;78.00
29453;DHT22;16424;50.956;5.320;2022-09-03T07:41:30;26.40;78.90
29453;DHT22;16424;50.956;5.320;2022-09-03T07:43:58;26.20;79.60
29453;DHT22;16424;50.956;5.320;2022-09-03T07:46:31;27.20;78.90
29453;DHT22;16424;50.956;5.320;2022-09-03T07:48:58;26.90;78.90
29453;DHT22;16424;50.956;5.320;2022-09-03T07:51:28;27.80;77.70
29453;DHT22;16424;50.956;5.320;2022-09-03T07:53:59;28.70;76.10
29453;DHT22;16424;50.956;5.320;2022-09-03T07:56:27;28.80;76.10
29453;DHT22;16424;50.956;5.320;2022-09-03T07:58:55;29.40;75.90
29453;DHT22;16424;50.956;5.320;2022-09-03T08:01:22;29.80;75.50
29453;DHT22;16424;50.956;5.320;2022-09-03T08:03:50;30.50;73.80
29453;DHT22;16424;50.956;5.320;2022-09-03T08:06:19;31.20;72.60
29453;DHT22;16424;50.956;5.320;2022-09-03T08:08:46;30.00;73.80
29453;DHT22;16424;50.956;5.320;2022-09-03T08:11:17;28.60;77.30
29453;DHT22;16424;50.956;5.320;2022-09-03T08:13:46;27.70;79.40
29453;DHT22;16424;50.956;5.320;2022-09-03T08:16:14;27.70;79.80
29453;DHT22;16424;50.956;5.320;2022-09-03T08:18:40;27.40;80.80
29453;DHT22;16424;50.956;5.320;2022-09-03T08:21:09;27.00;81.50
29453;DHT22;16424;50.956;5.320;2022-09-03T08:23:41;26.80;82.40
29453;DHT22;16424;50.956;5.320;2022-09-03T08:26:07;27.30;82.30
29453;DHT22;16424;50.956;5.320;2022-09-03T08:28:35;26.70;83.40
29453;DHT22;16424;50.956;5.320;2022-09-03T08:31:11;27.40;83.40
29453;DHT22;16424;50.956;5.320;2022-09-03T08:33:38;28.80;81.50
29453;DHT22;16424;50.956;5.320;2022-09-03T08:36:09;29.50;79.60
29453;DHT22;16424;50.956;5.320;2022-09-03T08:38:37;29.80;79.50
29453;DHT22;16424;50.956;5.320;2022-09-03T08:41:11;28.50;81.30
29453;DHT22;16424;50.956;5.320;2022-09-03T08:49:09;27.20;87.00
29453;DHT22;16424;50.956;5.320;2022-09-03T08:51:36;27.20;88.90
29453;DHT22;16424;50.956;5.320;2022-09-03T08:54:05;27.50;89.00
29453;DHT22;16424;50.956;5.320;2022-09-03T08:56:36;27.90;88.70
29453;DHT22;16424;50.956;5.320;2022-09-03T08:59:04;28.10;87.90
29453;DHT22;16424;50.956;5.320;2022-09-03T09:04:38;28.00;89.00
29453;DHT22;16424;50.956;5.320;2022-09-03T09:07:25;27.70;89.20
29453;DHT22;16424;50.956;5.320;2022-09-03T09:10:21;27.70;90.00
29453;DHT22;16424;50.956;5.320;2022-09-03T09:16:25;27.80;89.80
29453;DHT22;16424;50.956;5.320;2022-09-03T09:21:53;27.30;90.00
29453;DHT22;16424;50.956;5.320;2022-09-03T09:24:24;27.60;89.60
29453;DHT22;16424;50.956;5.320;2022-09-03T09:26:57;28.00;89.30
29453;DHT22;16424;50.956;5.320;2022-09-03T09:29:35;28.70;88.90
29453;DHT22;16424;50.956;5.320;2022-09-03T09:32:01;29.40;88.50
29453;DHT22;16424;50.956;5.320;2022-09-03T09:34:33;29.50;87.40
29453;DHT22;16424;50.956;5.320;2022-09-03T09:37:03;29.00;88.40
29453;DHT22;16424;50.956;5.320;2022-09-03T09:39:30;29.20;88.30
29453;DHT22;16424;50.956;5.320;2022-09-03T09:42:10;29.30;88.70
29453;DHT22;16424;50.956;5.320;2022-09-03T09:44:38;29.10;90.00
29453;DHT22;16424;50.956;5.320;2022-09-03T09:47:06;28.90;90.10
29453;DHT22;16424;50.956;5.320;2022-09-03T09:49:37;29.40;89.50
29453;DHT22;16424;50.956;5.320;2022-09-03T09:52:11;29.20;90.10
29453;DHT22;16424;50.956;5.320;2022-09-03T09:54:39;29.80;87.70
29453;DHT22;16424;50.956;5.320;2022-09-03T09:57:07;30.30;87.80
29453;DHT22;16424;50.956;5.320;2022-09-03T09:59:38;30.70;87.40
29453;DHT22;16424;50.956;5.320;2022-09-03T10:02:24;30.70;86.10
29453;DHT22;16424;50.956;5.320;2022-09-03T10:04:52;29.80;89.10
29453;DHT22;16424;50.956;5.320;2022-09-03T10:10:00;28.50;91.40
29453;DHT22;16424;50.956;5.320;2022-09-03T10:20:39;27.80;92.30
29453;DHT22;16424;50.956;5.320;2022-09-03T10:23:26;27.80;92.00
29453;DHT22;16424;50.956;5.320;2022-09-03T10:26:01;27.50;92.00
29453;DHT22;16424;50.956;5.320;2022-09-03T10:28:36;27.60;92.10
29453;DHT22;16424;50.956;5.320;2022-09-03T10:34:21;28.20;91.60
29453;DHT22;16424;50.956;5.320;2022-09-03T10:51:23;28.10;91.30
29453;DHT22;16424;50.956;5.320;2022-09-03T10:54:12;27.20;92.30
29453;DHT22;16424;50.956;5.320;2022-09-03T11:05:19;28.00;91.40
29453;DHT22;16424;50.956;5.320;2022-09-03T11:07:52;28.30;91.20
29453;DHT22;16424;50.956;5.320;2022-09-03T11:10:28;28.20;90.70
29453;DHT22;16424;50.956;5.320;2022-09-03T11:13:05;27.80;90.80
29453;DHT22;16424;50.956;5.320;2022-09-03T11:15:53;27.90;90.50
29453;DHT22;16424;50.956;5.320;2022-09-03T11:18:26;28.10;90.90
29453;DHT22;16424;50.956;5.320;2022-09-03T11:20:56;28.30;90.80
29453;DHT22;16424;50.956;5.320;2022-09-03T11:23:26;28.10;90.90
29453;DHT22;16424;50.956;5.320;2022-09-03T11:25:56;28.30;91.00
29453;DHT22;16424;50.956;5.320;2022-09-03T11:29:21;28.20;90.60
29453;DHT22;16424;50.956;5.320;2022-09-03T11:31:57;27.90;91.10
29453;DHT22;16424;50.956;5.320;2022-09-03T11:34:29;27.60;91.60
29453;DHT22;16424;50.956;5.320;2022-09-03T11:37:16;27.70;92.40
29453;DHT22;16424;50.956;5.320;2022-09-03T11:39:43;27.90;91.30
29453;DHT22;16424;50.956;5.320;2022-09-03T11:42:11;28.00;91.20
29453;DHT22;16424;50.956;5.320;2022-09-03T11:44:42;28.40;90.40
29453;DHT22;16424;50.956;5.320;2022-09-03T11:47:23;28.80;89.40
29453;DHT22;16424;50.956;5.320;2022-09-03T11:49:51;28.90;89.80
29453;DHT22;16424;50.956;5.320;2022-09-03T11:52:31;28.60;90.00
29453;DHT22;16424;50.956;5.320;2022-09-03T11:54:57;28.50;90.50
29453;DHT22;16424;50.956;5.320;2022-09-03T11:59:52;28.70;90.50
29453;DHT22;16424;50.956;5.320;2022-09-03T12:02:31;28.80;90.10
29453;DHT22;16424;50.956;5.320;2022-09-03T12:08:11;28.90;90.50
29453;DHT22;16424;50.956;5.320;2022-09-03T12:11:08;28.80;90.70
29453;DHT22;16424;50.956;5.320;2022-09-03T12:13:45;28.80;90.00
29453;DHT22;16424;50.956;5.320;2022-09-03T12:21:53;28.80;90.60
29453;DHT22;16424;50.956;5.320;2022-09-03T12:24:20;28.60;90.90
29453;DHT22;16424;50.956;5.320;2022-09-03T12:26:48;28.50;91.10
29453;DHT22;16424;50.956;5.320;2022-09-03T12:29:23;28.50;91.30
29453;DHT22;16424;50.956;5.320;2022-09-03T12:31:49;28.50;90.10
29453;DHT22;16424;50.956;5.320;2022-09-03T12:34:17;28.70;90.30
29453;DHT22;16424;50.956;5.320;2022-09-03T12:36:46;28.70;90.90
29453;DHT22;16424;50.956;5.320;2022-09-03T12:42:03;28.60;91.30
29453;DHT22;16424;50.956;5.320;2022-09-03T12:44:39;28.70;91.30
29453;DHT22;16424;50.956;5.320;2022-09-03T12:47:09;28.80;91.10
29453;DHT22;16424;50.956;5.320;2022-09-03T12:54:39;28.90;90.90
29453;DHT22;16424;50.956;5.320;2022-09-03T12:57:08;29.00;91.00
29453;DHT22;16424;50.956;5.320;2022-09-03T12:59:36;28.80;90.80
29453;DHT22;16424;50.956;5.320;2022-09-03T13:02:22;28.70;90.80
29453;DHT22;16424;50.956;5.320;2022-09-03T13:04:48;28.70;91.30
29453;DHT22;16424;50.956;5.320;2022-09-03T13:07:29;28.70;91.10
29453;DHT22;16424;50.956;5.320;2022-09-03T13:10:02;28.60;90.90
29453;DHT22;16424;50.956;5.320;2022-09-03T13:12:34;28.40;90.90
29453;DHT22;16424;50.956;5.320;2022-09-03T13:15:09;28.50;90.80
29453;DHT22;16424;50.956;5.320;2022-09-03T13:17:54;28.60;90.70
29453;DHT22;16424;50.956;5.320;2022-09-03T13:23:20;28.50;90.50
29453;DHT22;16424;50.956;5.320;2022-09-03T13:28:32;28.40;90.70
29453;DHT22;16424;50.956;5.320;2022-09-03T13:33:54;28.30;90.50
29453;DHT22;16424;50.956;5.320;2022-09-03T13:36:25;28.10;90.70
29453;DHT22;16424;50.956;5.320;2022-09-03T13:38:58;28.20;90.60
29453;DHT22;16424;50.956;5.320;2022-09-03T13:41:54;28.10;90.80
29453;DHT22;16424;50.956;5.320;2022-09-03T13:47:06;27.80;92.50
29453;DHT22;16424;50.956;5.320;2022-09-03T13:49:49;28.10;92.00
29453;DHT22;16424;50.956;5.320;2022-09-03T13:55:42;28.60;91.80
29453;DHT22;16424;50.956;5.320;2022-09-03T13:58:28;28.60;91.50
29453;DHT22;16424;50.956;5.320;2022-09-03T14:11:52;27.90;93.40
29453;DHT22;16424;50.956;5.320;2022-09-03T14:17:09;27.70;93.90
29453;DHT22;16424;50.956;5.320;2022-09-03T14:25:15;27.20;94.40
29453;DHT22;16424;50.956;5.320;2022-09-03T14:27:41;27.40;93.90
29453;DHT22;16424;50.956;5.320;2022-09-03T14:35:36;27.20;93.80
29453;DHT22;16424;50.956;5.320;2022-09-03T14:41:05;27.20;93.20
29453;DHT22;16424;50.956;5.320;2022-09-03T14:48:57;27.20;93.10
29453;DHT22;16424;50.956;5.320;2022-09-03T14:57:55;27.10;93.10
29453;DHT22;16424;50.956;5.320;2022-09-03T15:01:01;26.90;93.10
29453;DHT22;16424;50.956;5.320;2022-09-03T15:06:43;26.80;93.30
29453;DHT22;16424;50.956;5.320;2022-09-03T15:14:55;26.90;93.60
29453;DHT22;16424;50.956;5.320;2022-09-03T15:23:19;27.10;93.90
29453;DHT22;16424;50.956;5.320;2022-09-03T15:26:02;27.10;93.50
29453;DHT22;16424;50.956;5.320;2022-09-03T15:31:27;26.80;93.30
29453;DHT22;16424;50.956;5.320;2022-09-03T15:36:39;26.80;93.70
29453;DHT22;16424;50.956;5.320;2022-09-03T15:39:10;26.70;93.80
29453;DHT22;16424;50.956;5.320;2022-09-03T15:41:51;26.70;93.80
29453;DHT22;16424;50.956;5.320;2022-09-03T15:44:22;26.80;93.70
29453;DHT22;16424;50.956;5.320;2022-09-03T15:46:59;26.80;93.80
29453;DHT22;16424;50.956;5.320;2022-09-03T15:49:46;27.00;93.80
29453;DHT22;16424;50.956;5.320;2022-09-03T15:55:22;26.70;93.90
29453;DHT22;16424;50.956;5.320;2022-09-03T15:58:08;26.60;94.00
29453;DHT22;16424;50.956;5.320;2022-09-03T16:00:52;26.60;94.10
29453;DHT22;16424;50.956;5.320;2022-09-03T16:03:46;26.70;94.00
29453;DHT22;16424;50.956;5.320;2022-09-03T16:07:00;26.70;94.20
29453;DHT22;16424;50.956;5.320;2022-09-03T16:12:38;26.80;94.00
29453;DHT22;16424;50.956;5.320;2022-09-03T16:15:09;26.80;93.70
29453;DHT22;16424;50.956;5.320;2022-09-03T16:20:20;26.80;94.10
29453;DHT22;16424;50.956;5.320;2022-09-03T16:25:51;26.80;94.40
29453;DHT22;16424;50.956;5.320;2022-09-03T16:28:27;26.60;94.60
29453;DHT22;16424;50.956;5.320;2022-09-03T16:39:30;26.70;95.00
29453;DHT22;16424;50.956;5.320;2022-09-03T16:42:10;26.60;94.70
29453;DHT22;16424;50.956;5.320;2022-09-03T16:50:55;26.50;95.10
29453;DHT22;16424;50.956;5.320;2022-09-03T17:01:23;26.50;95.30
29453;DHT22;16424;50.956;5.320;2022-09-03T17:09:47;26.40;95.40
29453;DHT22;16424;50.956;5.320;2022-09-03T17:12:37;26.40;95.60
29453;DHT22;16424;50.956;5.320;2022-09-03T17:15:31;26.60;95.70
29453;DHT22;16424;50.956;5.320;2022-09-03T17:26:20;26.50;95.50
29453;DHT22;16424;50.956;5.320;2022-09-03T17:40:42;26.60;95.30
29453;DHT22;16424;50.956;5.320;2022-09-03T17:43:30;26.60;95.10
29453;DHT22;16424;50.956;5.320;2022-09-03T17:48:51;26.60;95.10
29453;DHT22;16424;50.956;5.320;2022-09-03T17:53:51;26.50;95.50
29453;DHT22;16424;50.956;5.320;2022-09-03T17:56:24;26.60;95.50
29453;DHT22;16424;50.956;5.320;2022-09-03T17:59:22;26.60;95.40
29453;DHT22;16424;50.956;5.320;2022-09-03T18:04:50;26.50;94.80
29453;DHT22;16424;50.956;5.320;2022-09-03T18:13:33;26.30;95.00
29453;DHT22;16424;50.956;5.320;2022-09-03T18:16:10;26.40;95.20
29453;DHT22;16424;50.956;5.320;2022-09-03T18:18:43;26.30;95.10
29453;DHT22;16424;50.956;5.320;2022-09-03T18:21:16;26.10;95.60
29453;DHT22;16424;50.956;5.320;2022-09-03T18:24:30;25.90;96.20
29453;DHT22;16424;50.956;5.320;2022-09-03T18:30:06;25.90;96.70
29453;DHT22;16424;50.956;5.320;2022-09-03T18:32:51;25.80;97.00
29453;DHT22;16424;50.956;5.320;2022-09-03T18:35:35;25.80;97.20
29453;DHT22;16424;50.956;5.320;2022-09-03T18:38:25;25.80;97.50
29453;DHT22;16424;50.956;5.320;2022-09-03T18:44:09;25.70;98.10
29453;DHT22;16424;50.956;5.320;2022-09-03T18:52:48;25.40;99.30
29453;DHT22;16424;50.956;5.320;2022-09-03T19:01:33;24.90;99.90
29453;DHT22;16424;50.956;5.320;2022-09-03T19:13:38;24.50;99.90
29453;DHT22;16424;50.956;5.320;2022-09-03T19:19:44;24.40;99.90
29453;DHT22;16424;50.956;5.320;2022-09-03T19:22:38;24.30;99.90
29453;DHT22;16424;50.956;5.320;2022-09-03T19:25:25;24.20;99.90
29453;DHT22;16424;50.956;5.320;2022-09-03T19:47:34;23.60;99.90
29453;DHT22;16424;50.956;5.320;2022-09-03T19:50:26;23.40;99.90
29453;DHT22;16424;50.956;5.320;2022-09-03T19:53:16;23.30;99.90
29453;DHT22;16424;50.956;5.320;2022-09-03T19:56:12;23.20;99.90
29453;DHT22;16424;50.956;5.320;2022-09-03T19:59:02;23.10;99.90
29453;DHT22;16424;50.956;5.320;2022-09-03T20:01:49;22.90;99.90
29453;DHT22;16424;50.956;5.320;2022-09-03T20:04:46;22.80;99.90
29453;DHT22;16424;50.956;5.320;2022-09-03T20:07:34;22.70;99.90
29453;DHT22;16424;50.956;5.320;2022-09-03T20:10:22;22.60;99.90
29453;DHT22;16424;50.956;5.320;2022-09-03T20:13:16;22.40;99.90
29453;DHT22;16424;50.956;5.320;2022-09-03T20:30:04;22.10;99.90
29453;DHT22;16424;50.956;5.320;2022-09-03T20:40:44;21.70;99.90
29453;DHT22;16424;50.956;5.320;2022-09-03T20:49:20;21.70;99.90
29453;DHT22;16424;50.956;5.320;2022-09-03T20:51:54;21.70;99.90
29453;DHT22;16424;50.956;5.320;2022-09-03T20:54:31;21.80;99.90
29453;DHT22;16424;50.956;5.320;2022-09-03T21:00:02;21.70;99.90
29453;DHT22;16424;50.956;5.320;2022-09-03T21:08:32;21.80;99.90
29453;DHT22;16424;50.956;5.320;2022-09-03T21:11:18;21.70;99.90
29453;DHT22;16424;50.956;5.320;2022-09-03T21:16:32;21.80;99.90
29453;DHT22;16424;50.956;5.320;2022-09-03T21:24:24;21.70;99.90
29453;DHT22;16424;50.956;5.320;2022-09-03T21:27:08;21.70;99.90
29453;DHT22;16424;50.956;5.320;2022-09-03T21:29:41;21.80;99.90
29453;DHT22;16424;50.956;5.320;2022-09-03T21:32:17;21.70;99.90
29453;DHT22;16424;50.956;5.320;2022-09-03T21:35:00;21.80;99.90
29453;DHT22;16424;50.956;5.320;2022-09-03T21:37:34;21.90;99.90
29453;DHT22;16424;50.956;5.320;2022-09-03T21:40:00;21.90;99.90
29453;DHT22;16424;50.956;5.320;2022-09-03T21:45:03;21.90;99.90
29453;DHT22;16424;50.956;5.320;2022-09-03T21:47:36;21.70;99.90
29453;DHT22;16424;50.956;5.320;2022-09-03T21:50:16;21.80;99.90
29453;DHT22;16424;50.956;5.320;2022-09-03T22:03:56;21.70;99.90
29453;DHT22;16424;50.956;5.320;2022-09-03T22:06:29;21.80;99.90
29453;DHT22;16424;50.956;5.320;2022-09-03T22:09:17;21.70;99.90
29453;DHT22;16424;50.956;5.320;2022-09-03T22:12:02;21.70;99.90
29453;DHT22;16424;50.956;5.320;2022-09-03T22:14:40;21.60;99.90
29453;DHT22;16424;50.956;5.320;2022-09-03T22:19:58;21.70;99.90
29453;DHT22;16424;50.956;5.320;2022-09-03T22:25:04;21.60;99.90
29453;DHT22;16424;50.956;5.320;2022-09-03T22:27:37;21.60;99.90
29453;DHT22;16424;50.956;5.320;2022-09-03T22:30:16;21.50;99.90
29453;DHT22;16424;50.956;5.320;2022-09-03T22:35:14;21.40;99.90
29453;DHT22;16424;50.956;5.320;2022-09-03T22:46:10;21.30;99.90
29453;DHT22;16424;50.956;5.320;2022-09-03T22:51:09;21.30;99.90